Terminal Aerodrome Forecast
Issued by NWS

Current Version | Previous Version | Text Only | Print | Product List | Glossary Off
Versions: 1 2 3 4 5 6 7 8 9 10 11 12 13 14 15 16 17 18 19 20 21 22 23 24 25 26 27 28

819
FTUS41 KRNK 072341
TAFLWB
TAF
KLWB 072341Z 0800/0824 VRB03KT P6SM BKN250
     FM080800 00000KT P6SM SCT090 BKN150
     FM081300 VRB03KT 6SM -SN SCT035 OVC060
     FM081500 21004KT 3SM -SN SCT015 OVC030=

USA.gov is the U.S. government's official web portal to all federal, state and local government web resources and services.